KBDE/BDE METAR and TAF weather

Enter ICAO airport designator
Station Type Date Time Source
KBDE METAR 2020/04/05 20:53 UTC NOAA

KBDE 052053Z AUTO 18007KT 10SM BKN050 09/M01 A3001 RMK AO2 SLP175 T00891011 58007


Station Type Date Time Source
KBDE Decoded METAR 2020/04/05 20:53 UTC NOAA

BAUDETTE INTERNATIONAL AIRPORT, MN, United States (KBDE) 48-44N 94-37W 329M
Apr 05, 2020 - 04:53 PM EDT / 2020.04.05 2053 UTC
Wind: from the S (180 degrees) at 8 MPH (7 KT):0
Visibility: 10 mile(s):0
Sky conditions: mostly cloudy
Temperature: 48.0 F (8.9 C)
Dew Point: 30.0 F (-1.1 C)
Relative Humidity: 49%
Pressure (altimeter): 30.01 in. Hg (1016 hPa)
Pressure tendency: 0.02 inches (0.7 hPa) lower than three hours ago
ob: KBDE 052053Z AUTO 18007KT 10SM BKN050 09/M01 A3001 RMK AO2 SLP175 T00891011 58007
cycle: 21

Station Type Date Time Source
KBDE TAF UTC NOAA

Error!

Example: see airport list